LIPC 200055Z 24003KT CAVOK 13/12 Q1025 RMK SKC VIS MIN 9999 WIND THR11 23004KT WIND THR29 30001KT BLU LIPC 192355Z 23004KT CAVOK 13/12 Q1025 RMK SKC VIS MIN 9999 WIND THR11 22004KT WIND THR29 28003KT BLU LIPC 192255Z 25003KT CAVOK 13/12 Q1025 RMK SKC VIS MIN 9999 WIND THR11 24003KT WIND THR29 26002KT BLU LIPC 192155Z 24003KT CAVOK 14/12 Q1025 RMK SKC VIS MIN 9999 WIND THR11 23002KT WIND THR29 27002KT BLU LIPC 192055Z 10001KT CAVOK 16/13 Q1025 RMK SKC VIS MIN 9999 WIND THR11 12001KT WIND THR29 19001KT BLU LIPC 191955Z 11003KT CAVOK 17/12 Q1025 RMK SKC VIS MIN 9999 WIND THR11 11002KT WIND THR29 09002KT BLU LIPC 191855Z 11007KT CAVOK 19/12 Q1025 RMK SKC VIS MIN 9999 WIND THR11 12006KT WIND THR29 11004KT BLU LIPC 191755Z 10008KT CAVOK 20/13 Q1025 RMK SKC VIS MIN 9999 WIND THR11 11009KT WIND THR29 12008KT BLU LIPC 191655Z 11009KT CAVOK 21/11 Q1025 RMK SKC VIS MIN 9999 WIND THR11 11011KT WIND THR29 11010KT BLU LIPC 191555Z 11011KT CAVOK 22/10 Q1025 RMK SKC VIS MIN 9999 WIND THR11 12012KT WIND THR29 12012KT BLU LIPC 191455Z 11007KT CAVOK 22/10 Q1026 RMK SKC VIS MIN 9999 WIND THR11 11012KT WIND THR29 12011KT BLU LIPC 191355Z 10012KT CAVOK 24/09 Q1026 RMK SKC VIS MIN 9999 WIND THR11 10013KT WIND THR29 12012KT BLU LIPC 191255Z 11012KT CAVOK 24/08 Q1026 RMK SKC VIS MIN 9999 WIND THR11 10012KT WIND THR29 11011KT BLU LIPC 191155Z 08010KT CAVOK 24/11 Q1026 RMK SKC VIS MIN 9999 WIND THR11 09011KT WIND THR29 09011KT BLU LIPC 191055Z 09008KT CAVOK 23/11 Q1027 RMK SKC VIS MIN 9999 WIND THR11 09009KT WIND THR29 08009KT BLU LIPC 190955Z 07006KT CAVOK 23/16 Q1027 RMK SKC VIS MIN 9999 WIND THR11 07006KT WIND THR29 07005KT BLU LIPC 190855Z 11004KT CAVOK 23/13 Q1027 RMK SKC VIS MIN 9999 WIND THR11 VRB03KT WIND THR29 VRB03KT BLU LIPC 190755Z VRB02KT CAVOK 21/16 Q1027 RMK SKC VIS MIN 9999 WIND THR11 08003KT WIND THR29 VRB02KT BLU LIPC 190655Z 30003KT CAVOK 19/14 Q1027 RMK SKC VIS MIN 9999 WIND THR11 30002KT WIND THR29 25002KT BLU LIPC 190555Z 24004KT CAVOK 16/14 Q1026 RMK SKC VIS MIN 9999 WIND THR11 23003KT WIND THR29 26003KT BLU LIPC 190455Z 26005KT CAVOK 13/12 Q1025 RMK SKC VIS MIN 9999 WIND THR11 26005KT WIND THR29 27004KT BLU LIPC 190355Z 27004KT CAVOK 12/12 Q1025 RMK SKC VIS MIN 9999 WIND THR11 27005KT WIND THR29 29003KT BLU LIPC 190255Z 28004KT CAVOK 12/08 Q1025 RMK SKC VIS MIN 9999 WIND THR11 27005KT WIND THR29 29002KT BLU LIPC 190155Z 24003KT CAVOK 13/12 Q1025 RMK SKC VIS MIN 9999 WIND THR11 23004KT WIND THR29 28003KT BLU LIPC 190055Z 25005KT CAVOK 13/12 Q1025 RMK SKC VIS MIN 9999 WIND THR11 23005KT WIND THR29 27005KT BLU LIPC 182355Z 25004KT CAVOK 13/12 Q1025 RMK SKC VIS MIN 9999 WIND THR11 25003KT WIND THR29 27003KT BLU LIPC 182255Z 18002KT CAVOK 13/11 Q1025 RMK SKC VIS MIN 9999 WIND THR11 19003KT WIND THR29 20002KT BLU LIPC 182155Z 29003KT CAVOK 14/13 Q1024 RMK SKC VIS MIN 9999 WIND THR11 27003KT WIND THR29 27003KT BLU LIPC 182055Z 27001KT CAVOK 15/13 Q1024 RMK SKC VIS MIN 9999 WIND THR11 26000KT WIND THR29 26001KT BLU LIPC 181955Z 13002KT CAVOK 17/14 Q1024 RMK SKC VIS MIN 9999 WIND THR11 11001KT WIND THR29 07001KT BLU LIPC 181855Z 13002KT CAVOK 19/13 Q1023 RMK SKC VIS MIN 9999 WIND THR11 13002KT WIND THR29 14002KT BLU LIPC 181755Z 10005KT CAVOK 22/13 Q1022 RMK SKC VIS MIN 9999 WIND THR11 11005KT WIND THR29 11006KT BLU LIPC 181655Z 11007KT CAVOK 23/12 Q1022 RMK SKC VIS MIN 9999 WIND THR11 11008KT WIND THR29 11008KT BLU LIPC 181555Z 12011KT CAVOK 23/12 Q1022 RMK SKC VIS MIN 9999 WIND THR11 12010KT WIND THR29 12010KT BLU LIPC 181455Z 11010KT CAVOK 24/12 Q1021 RMK SKC VIS MIN 9999 WIND THR11 11011KT WIND THR29 12008KT BLU LIPC 181355Z 12008KT CAVOK 24/12 Q1022 RMK SKC VIS MIN 9999 WIND THR11 12010KT WIND THR29 13009KT BLU

METAR Messwerte "CERVIA (IT-AFB)" LIPC

Zurück zur Übersicht

Ortsname
Ländercode / m ü. NN
Zeit Temperatur Taupunkt Rel.
Luftfeuchte
Luftdruck:
Altimeter
NN
Station
Wind in Beaufort
(Knoten)
Sichtweite
(Meter)
Wolken
(Meter über Grund)
Wettererscheinung
CERVIA (IT-AFB)
IT 10
Fr 20.05. 02:55131294 %1025
1025
1024
WSW 2 (3)>= 10000Nicht signifikant 
CERVIA (IT-AFB)
IT 10
Fr 20.05. 01:55131294 %1025
1025
1024
SW 2 (4)>= 10000Nicht signifikant 
CERVIA (IT-AFB)
IT 10
Fr 20.05. 00:55131294 %1025
1025
1024
WSW 2 (3)>= 10000Nicht signifikant 
CERVIA (IT-AFB)
IT 10
Do 19.05. 23:55141288 %1025
1025
1024
WSW 2 (3)>= 10000Nicht signifikant 
CERVIA (IT-AFB)
IT 10
Do 19.05. 22:55161382 %1025
1025
1024
O 1 (1)>= 10000Nicht signifikant 
CERVIA (IT-AFB)
IT 10
Do 19.05. 21:55171272 %1025
1025
1024
OSO 2 (3)>= 10000Nicht signifikant 
CERVIA (IT-AFB)
IT 10
Do 19.05. 20:55191264 %1025
1025
1024
OSO 3 (7)>= 10000Nicht signifikant 
CERVIA (IT-AFB)
IT 10
Do 19.05. 19:55201364 %1025
1025
1024
O 3 (8)>= 10000Nicht signifikant 
CERVIA (IT-AFB)
IT 10
Do 19.05. 18:55211153 %1025
1025
1024
OSO 3 (9)>= 10000Nicht signifikant 
CERVIA (IT-AFB)
IT 10
Do 19.05. 17:55221046 %1025
1025
1024
OSO 4 (11)>= 10000Nicht signifikant 
CERVIA (IT-AFB)
IT 10
Do 19.05. 16:55221046 %1026
1026
1025
OSO 3 (7)>= 10000Nicht signifikant 
CERVIA (IT-AFB)
IT 10
Do 19.05. 15:5524938 %1026
1026
1025
O 4 (12)>= 10000Nicht signifikant 
CERVIA (IT-AFB)
IT 10
Do 19.05. 14:5524836 %1026
1026
1025
OSO 4 (12)>= 10000Nicht signifikant 
CERVIA (IT-AFB)
IT 10
Do 19.05. 13:55241144 %1026
1026
1025
O 3 (10)>= 10000Nicht signifikant 
CERVIA (IT-AFB)
IT 10
Do 19.05. 12:55231147 %1027
1027
1026
O 3 (8)>= 10000Nicht signifikant 
CERVIA (IT-AFB)
IT 10
Do 19.05. 11:55231665 %1027
1027
1026
ONO 2 (6)>= 10000Nicht signifikant 
CERVIA (IT-AFB)
IT 10
Do 19.05. 10:55231353 %1027
1027
1026
OSO 2 (4)>= 10000Nicht signifikant 
CERVIA (IT-AFB)
IT 10
Do 19.05. 09:55211673 %1027
1027
1026
Uml 1 (2)>= 10000Nicht signifikant 
CERVIA (IT-AFB)
IT 10
Do 19.05. 08:55191473 %1027
1027
1026
WNW 2 (3)>= 10000Nicht signifikant 
CERVIA (IT-AFB)
IT 10
Do 19.05. 07:55161488 %1026
1026
1025
WSW 2 (4)>= 10000Nicht signifikant 
CERVIA (IT-AFB)
IT 10
Do 19.05. 06:55131294 %1025
1025
1024
W 2 (5)>= 10000Nicht signifikant 
CERVIA (IT-AFB)
IT 10
Do 19.05. 05:551212100 %1025
1025
1024
W 2 (4)>= 10000Nicht signifikant 
CERVIA (IT-AFB)
IT 10
Do 19.05. 04:5512876 %1025
1025
1024
W 2 (4)>= 10000Nicht signifikant 
CERVIA (IT-AFB)
IT 10
Do 19.05. 03:55131294 %1025
1025
1024
WSW 2 (3)>= 10000Nicht signifikant 
CERVIA (IT-AFB)
IT 10
Do 19.05. 02:55131294 %1025
1025
1024
WSW 2 (5)>= 10000Nicht signifikant 
CERVIA (IT-AFB)
IT 10
Do 19.05. 01:55131294 %1025
1025
1024
WSW 2 (4)>= 10000Nicht signifikant 
CERVIA (IT-AFB)
IT 10
Do 19.05. 00:55131188 %1025
1025
1024
S 1 (2)>= 10000Nicht signifikant 
CERVIA (IT-AFB)
IT 10
Mi 18.05. 23:55141394 %1024
1024
1023
WNW 2 (3)>= 10000Nicht signifikant 
CERVIA (IT-AFB)
IT 10
Mi 18.05. 22:55151388 %1024
1024
1023
W 1 (1)>= 10000Nicht signifikant 
CERVIA (IT-AFB)
IT 10
Mi 18.05. 21:55171482 %1024
1024
1023
SO 1 (2)>= 10000Nicht signifikant 
CERVIA (IT-AFB)
IT 10
Mi 18.05. 20:55191368 %1023
1023
1022
SO 1 (2)>= 10000Nicht signifikant 
CERVIA (IT-AFB)
IT 10
Mi 18.05. 19:55221357 %1022
1022
1021
O 2 (5)>= 10000Nicht signifikant 
CERVIA (IT-AFB)
IT 10
Mi 18.05. 18:55231250 %1022
1022
1021
OSO 3 (7)>= 10000Nicht signifikant 
CERVIA (IT-AFB)
IT 10
Mi 18.05. 17:55231250 %1022
1022
1021
OSO 4 (11)>= 10000Nicht signifikant 
CERVIA (IT-AFB)
IT 10
Mi 18.05. 16:55241247 %1021
1021
1020
OSO 3 (10)>= 10000Nicht signifikant 
CERVIA (IT-AFB)
IT 10
Mi 18.05. 15:55241247 %1022
1022
1021
OSO 3 (8)>= 10000Nicht signifikant 

Altimeter: Einstellung am Altimeter (Höhenmesser), die Höhe 0 muss auf diesen Luftdruckwert zeigen, damit das Gerät die Stationshöhe richtig anzeigt.

NN: Luftdruck reduziert auf "Normal Null", auf Meereshöhe, dieser von der Temperatur abhängige Wert wird bisweilen unkorrekt einfach als "Luftdruck" bezeichnet. Eigentlich nur eine fiktive Größe, die es erlaubt, Stationen auf unterschiedlichen Höhen miteinander zu vergleichen.

Station: Realer Luftdruck an der Station.